This is the latest recevied weather packets stored in our database for station/object KC8UZG. If no packets are shown the sender has not sent any weather packets the latest 10 day(s).
| Time | Temp. | Humidity | Pressure | Rain* | Wind** | Luminosity | Snow |
|---|---|---|---|---|---|---|---|
| 1777393540 | 19.44° C | 83% | 1013.6 hPa | 0 mm | - | 346 W/m² | - |
| 1777392919 | 19.44° C | 84% | 1013.6 hPa | 0 mm | - | 422 W/m² | - |
| 1777392325 | 18.89° C | 86% | 1013.5 hPa | 0 mm | - | 147 W/m² | - |
| 1777391731 | 18.33° C | 87% | 1013.4 hPa | 0 mm | - | 155 W/m² | - |
| 1777391137 | 18.89° C | 86% | 1013.2 hPa | 0 mm | - | 80 W/m² | - |
| 1777390516 | 19.44° C | 85% | 1013.1 hPa | 0 mm | - | 128 W/m² | - |
| 1777389922 | 19.44° C | 84% | 1012.9 hPa | 0 mm | - | 215 W/m² | - |
| 1777389328 | 19.44° C | 86% | 1012.9 hPa | 0 mm | - | 445 W/m² | - |
| 1777388734 | 18.33° C | 88% | 1012.6 hPa | 0 mm | - | 129 W/m² | - |
| 1777388141 | 18.33° C | 88% | 1012.6 hPa | 0 mm | - | 84 W/m² | - |
| 1777387519 | 18.33° C | 91% | 1012.6 hPa | 0 mm | - | 169 W/m² | - |
| 1777386925 | 17.78° C | 94% | 1012.5 hPa | 0 mm | - | 151 W/m² | - |
| 1777386331 | 16.67° C | 99% | 1012.2 hPa | 0 mm | - | 139 W/m² | - |
| 1777385738 | 16.11° C | 99% | 1012.2 hPa | 0 mm | - | 104 W/m² | - |
| 1777385116 | 16.11° C | 99% | 1012 hPa | 0 mm | - | 78 W/m² | - |
| 1777384523 | 16.11° C | 99% | 1011.8 hPa | 0 mm | - | 67 W/m² | - |
| 1777383928 | 15.56° C | 99% | 1011.8 hPa | 0 mm | - | 46 W/m² | - |
| 1777383334 | 15.56° C | 99% | 1011.8 hPa | 0 mm | - | 53 W/m² | - |
| 1777382740 | 15.56° C | 99% | 1011.7 hPa | 0 mm | - | 40 W/m² | - |
| 1777382119 | 15.56° C | 99% | 1011.5 hPa | 0 mm | - | 37 W/m² | - |
| 1777381525 | 15.56° C | 99% | 1011.4 hPa | 0 mm | - | 47 W/m² | - |
| 1777380932 | 15.56° C | 99% | 1011.5 hPa | 0 mm | - | 31 W/m² | - |
| 1777380337 | 15° C | 99% | 1011.2 hPa | 0 mm | - | 23 W/m² | - |
| 1777379716 | 15° C | 99% | 1010.9 hPa | 0 mm | - | 19 W/m² | - |
| 1777379122 | 15° C | 99% | 1010.8 hPa | 0 mm | - | 22 W/m² | - |
* Rain latest hour (hover to see other rain measurements)
** Current wind speed in m/s (hover to see current wind gust speed)